sensor_id;sensor_type;location;lat;lon;timestamp;P1;durP1;ratioP1;P2;durP2;ratioP2
80377;SDS011;69688;48.124;11.542;2023-05-10T00:01:39;0.85;;;0.60;;
80377;SDS011;69688;48.124;11.542;2023-05-10T00:04:05;1.67;;;0.80;;
80377;SDS011;69688;48.124;11.542;2023-05-10T00:06:30;0.98;;;0.60;;
80377;SDS011;69688;48.124;11.542;2023-05-10T00:08:56;1.08;;;0.70;;
80377;SDS011;69688;48.124;11.542;2023-05-10T00:11:21;0.95;;;0.65;;
80377;SDS011;69688;48.124;11.542;2023-05-10T00:13:47;0.67;;;0.60;;
80377;SDS011;69688;48.124;11.542;2023-05-10T00:16:12;0.90;;;0.45;;
80377;SDS011;69688;48.124;11.542;2023-05-10T00:18:38;1.50;;;0.60;;
80377;SDS011;69688;48.124;11.542;2023-05-10T00:21:04;1.17;;;0.60;;
80377;SDS011;69688;48.124;11.542;2023-05-10T00:23:29;1.80;;;0.50;;
80377;SDS011;69688;48.124;11.542;2023-05-10T00:25:55;0.80;;;0.53;;
80377;SDS011;69688;48.124;11.542;2023-05-10T00:28:20;1.75;;;0.93;;
80377;SDS011;69688;48.124;11.542;2023-05-10T00:30:46;0.60;;;0.40;;
80377;SDS011;69688;48.124;11.542;2023-05-10T00:33:11;0.90;;;0.50;;
80377;SDS011;69688;48.124;11.542;2023-05-10T00:35:37;0.90;;;0.50;;
80377;SDS011;69688;48.124;11.542;2023-05-10T00:38:03;0.70;;;0.40;;
80377;SDS011;69688;48.124;11.542;2023-05-10T00:40:28;0.90;;;0.60;;
80377;SDS011;69688;48.124;11.542;2023-05-10T00:42:55;0.80;;;0.60;;
80377;SDS011;69688;48.124;11.542;2023-05-10T00:45:20;0.60;;;0.40;;
80377;SDS011;69688;48.124;11.542;2023-05-10T00:47:46;1.73;;;0.70;;
80377;SDS011;69688;48.124;11.542;2023-05-10T00:50:11;0.57;;;0.40;;
80377;SDS011;69688;48.124;11.542;2023-05-10T00:52:36;2.10;;;0.53;;
80377;SDS011;69688;48.124;11.542;2023-05-10T00:55:02;0.55;;;0.35;;
80377;SDS011;69688;48.124;11.542;2023-05-10T00:57:28;0.40;;;0.22;;
80377;SDS011;69688;48.124;11.542;2023-05-10T00:59:54;1.42;;;0.40;;
80377;SDS011;69688;48.124;11.542;2023-05-10T01:02:19;0.45;;;0.40;;
80377;SDS011;69688;48.124;11.542;2023-05-10T01:04:45;0.40;;;0.40;;
80377;SDS011;69688;48.124;11.542;2023-05-10T01:07:10;0.90;;;0.60;;
80377;SDS011;69688;48.124;11.542;2023-05-10T01:09:36;0.50;;;0.30;;
80377;SDS011;69688;48.124;11.542;2023-05-10T01:12:01;0.68;;;0.50;;
80377;SDS011;69688;48.124;11.542;2023-05-10T01:14:26;0.57;;;0.35;;
80377;SDS011;69688;48.124;11.542;2023-05-10T01:16:52;0.50;;;0.30;;
80377;SDS011;69688;48.124;11.542;2023-05-10T01:19:25;0.32;;;0.30;;
80377;SDS011;69688;48.124;11.542;2023-05-10T01:27:09;0.47;;;0.40;;
80377;SDS011;69688;48.124;11.542;2023-05-10T01:32:40;0.22;;;0.20;;
80377;SDS011;69688;48.124;11.542;2023-05-10T01:35:16;1.27;;;0.35;;
80377;SDS011;69688;48.124;11.542;2023-05-10T01:43:28;1.15;;;0.38;;
80377;SDS011;69688;48.124;11.542;2023-05-10T01:46:01;0.60;;;0.28;;
80377;SDS011;69688;48.124;11.542;2023-05-10T01:48:35;1.08;;;0.15;;
80377;SDS011;69688;48.124;11.542;2023-05-10T01:51:01;1.08;;;0.20;;
80377;SDS011;69688;48.124;11.542;2023-05-10T01:53:27;0.35;;;0.30;;
80377;SDS011;69688;48.124;11.542;2023-05-10T01:55:53;0.45;;;0.30;;
80377;SDS011;69688;48.124;11.542;2023-05-10T01:58:21;0.75;;;0.20;;
80377;SDS011;69688;48.124;11.542;2023-05-10T02:00:50;0.22;;;0.10;;
80377;SDS011;69688;48.124;11.542;2023-05-10T02:03:16;1.05;;;0.30;;
80377;SDS011;69688;48.124;11.542;2023-05-10T02:05:43;0.70;;;0.30;;
80377;SDS011;69688;48.124;11.542;2023-05-10T02:08:11;0.52;;;0.30;;
80377;SDS011;69688;48.124;11.542;2023-05-10T02:10:36;1.20;;;0.22;;
80377;SDS011;69688;48.124;11.542;2023-05-10T02:13:03;0.20;;;0.20;;
80377;SDS011;69688;48.124;11.542;2023-05-10T02:15:29;1.92;;;0.30;;
80377;SDS011;69688;48.124;11.542;2023-05-10T02:17:55;1.40;;;0.30;;
80377;SDS011;69688;48.124;11.542;2023-05-10T02:20:21;0.50;;;0.30;;
80377;SDS011;69688;48.124;11.542;2023-05-10T02:22:47;0.47;;;0.20;;
80377;SDS011;69688;48.124;11.542;2023-05-10T02:25:14;0.65;;;0.30;;
80377;SDS011;69688;48.124;11.542;2023-05-10T02:27:40;0.75;;;0.20;;
80377;SDS011;69688;48.124;11.542;2023-05-10T02:30:06;0.40;;;0.30;;
80377;SDS011;69688;48.124;11.542;2023-05-10T02:32:32;0.70;;;0.40;;
80377;SDS011;69688;48.124;11.542;2023-05-10T02:34:58;0.30;;;0.20;;
80377;SDS011;69688;48.124;11.542;2023-05-10T02:37:25;0.43;;;0.20;;
80377;SDS011;69688;48.124;11.542;2023-05-10T02:39:50;0.80;;;0.40;;
80377;SDS011;69688;48.124;11.542;2023-05-10T02:42:20;0.32;;;0.30;;
80377;SDS011;69688;48.124;11.542;2023-05-10T02:44:50;0.70;;;0.20;;
80377;SDS011;69688;48.124;11.542;2023-05-10T02:47:16;0.20;;;0.20;;
80377;SDS011;69688;48.124;11.542;2023-05-10T02:49:42;1.05;;;0.30;;
80377;SDS011;69688;48.124;11.542;2023-05-10T02:52:08;0.30;;;0.30;;
80377;SDS011;69688;48.124;11.542;2023-05-10T02:54:39;0.20;;;0.20;;
80377;SDS011;69688;48.124;11.542;2023-05-10T02:57:16;0.20;;;0.10;;
80377;SDS011;69688;48.124;11.542;2023-05-10T02:59:45;0.30;;;0.20;;
80377;SDS011;69688;48.124;11.542;2023-05-10T03:02:13;0.30;;;0.30;;
80377;SDS011;69688;48.124;11.542;2023-05-10T03:04:39;0.30;;;0.20;;
80377;SDS011;69688;48.124;11.542;2023-05-10T03:07:05;0.40;;;0.20;;
80377;SDS011;69688;48.124;11.542;2023-05-10T03:09:30;0.20;;;0.20;;
80377;SDS011;69688;48.124;11.542;2023-05-10T03:17:36;0.40;;;0.25;;
80377;SDS011;69688;48.124;11.542;2023-05-10T03:20:27;0.20;;;0.20;;
80377;SDS011;69688;48.124;11.542;2023-05-10T03:23:00;0.35;;;0.20;;
80377;SDS011;69688;48.124;11.542;2023-05-10T03:25:31;0.22;;;0.10;;
80377;SDS011;69688;48.124;11.542;2023-05-10T03:27:56;0.20;;;0.15;;
80377;SDS011;69688;48.124;11.542;2023-05-10T03:30:22;0.15;;;0.15;;
80377;SDS011;69688;48.124;11.542;2023-05-10T03:32:49;0.25;;;0.20;;
80377;SDS011;69688;48.124;11.542;2023-05-10T03:35:14;0.30;;;0.30;;
80377;SDS011;69688;48.124;11.542;2023-05-10T03:37:40;0.45;;;0.30;;
80377;SDS011;69688;48.124;11.542;2023-05-10T03:40:05;0.50;;;0.40;;
80377;SDS011;69688;48.124;11.542;2023-05-10T03:42:31;0.98;;;0.20;;
80377;SDS011;69688;48.124;11.542;2023-05-10T03:44:56;0.40;;;0.20;;
80377;SDS011;69688;48.124;11.542;2023-05-10T03:47:21;0.30;;;0.20;;
80377;SDS011;69688;48.124;11.542;2023-05-10T03:49:47;1.40;;;0.30;;
80377;SDS011;69688;48.124;11.542;2023-05-10T03:52:12;3.27;;;0.33;;
80377;SDS011;69688;48.124;11.542;2023-05-10T03:54:37;0.28;;;0.10;;
80377;SDS011;69688;48.124;11.542;2023-05-10T03:57:03;0.20;;;0.10;;
80377;SDS011;69688;48.124;11.542;2023-05-10T03:59:29;0.35;;;0.10;;
80377;SDS011;69688;48.124;11.542;2023-05-10T04:01:54;0.28;;;0.17;;
80377;SDS011;69688;48.124;11.542;2023-05-10T04:04:20;0.22;;;0.13;;
80377;SDS011;69688;48.124;11.542;2023-05-10T04:06:46;0.30;;;0.20;;
80377;SDS011;69688;48.124;11.542;2023-05-10T04:09:11;0.30;;;0.22;;
80377;SDS011;69688;48.124;11.542;2023-05-10T04:11:37;0.17;;;0.17;;
80377;SDS011;69688;48.124;11.542;2023-05-10T04:14:02;0.45;;;0.20;;
80377;SDS011;69688;48.124;11.542;2023-05-10T04:16:27;0.50;;;0.20;;
80377;SDS011;69688;48.124;11.542;2023-05-10T04:18:53;0.22;;;0.20;;
80377;SDS011;69688;48.124;11.542;2023-05-10T04:21:18;0.33;;;0.20;;
80377;SDS011;69688;48.124;11.542;2023-05-10T04:23:43;1.55;;;0.45;;
80377;SDS011;69688;48.124;11.542;2023-05-10T04:26:09;0.38;;;0.17;;
80377;SDS011;69688;48.124;11.542;2023-05-10T04:28:34;0.15;;;0.15;;
80377;SDS011;69688;48.124;11.542;2023-05-10T04:31:07;0.40;;;0.20;;
80377;SDS011;69688;48.124;11.542;2023-05-10T04:33:33;0.45;;;0.20;;
80377;SDS011;69688;48.124;11.542;2023-05-10T04:35:59;0.13;;;0.10;;
80377;SDS011;69688;48.124;11.542;2023-05-10T04:38:25;0.30;;;0.17;;
80377;SDS011;69688;48.124;11.542;2023-05-10T04:40:50;0.20;;;0.15;;
80377;SDS011;69688;48.124;11.542;2023-05-10T04:43:16;0.15;;;0.15;;
80377;SDS011;69688;48.124;11.542;2023-05-10T04:45:41;1.17;;;0.20;;
80377;SDS011;69688;48.124;11.542;2023-05-10T04:48:06;0.60;;;0.30;;
80377;SDS011;69688;48.124;11.542;2023-05-10T04:50:32;0.32;;;0.20;;
80377;SDS011;69688;48.124;11.542;2023-05-10T04:52:58;0.60;;;0.22;;
80377;SDS011;69688;48.124;11.542;2023-05-10T04:55:23;0.40;;;0.20;;
80377;SDS011;69688;48.124;11.542;2023-05-10T04:57:48;0.50;;;0.23;;
80377;SDS011;69688;48.124;11.542;2023-05-10T05:00:14;0.25;;;0.22;;
80377;SDS011;69688;48.124;11.542;2023-05-10T05:02:43;0.93;;;0.47;;
80377;SDS011;69688;48.124;11.542;2023-05-10T05:05:12;1.38;;;0.50;;
80377;SDS011;69688;48.124;11.542;2023-05-10T05:07:37;0.82;;;0.20;;
80377;SDS011;69688;48.124;11.542;2023-05-10T05:10:06;0.38;;;0.22;;
80377;SDS011;69688;48.124;11.542;2023-05-10T05:12:32;0.93;;;0.40;;
80377;SDS011;69688;48.124;11.542;2023-05-10T05:14:58;0.68;;;0.20;;
80377;SDS011;69688;48.124;11.542;2023-05-10T05:17:23;1.77;;;0.30;;
80377;SDS011;69688;48.124;11.542;2023-05-10T05:19:48;0.95;;;0.47;;
80377;SDS011;69688;48.124;11.542;2023-05-10T05:22:14;0.40;;;0.22;;
80377;SDS011;69688;48.124;11.542;2023-05-10T05:24:39;2.47;;;0.38;;
80377;SDS011;69688;48.124;11.542;2023-05-10T05:27:04;2.47;;;0.40;;
80377;SDS011;69688;48.124;11.542;2023-05-10T05:29:30;1.00;;;0.30;;
80377;SDS011;69688;48.124;11.542;2023-05-10T05:31:56;0.30;;;0.28;;
80377;SDS011;69688;48.124;11.542;2023-05-10T05:34:21;0.17;;;0.10;;
80377;SDS011;69688;48.124;11.542;2023-05-10T05:36:47;0.47;;;0.32;;
80377;SDS011;69688;48.124;11.542;2023-05-10T05:39:13;0.30;;;0.25;;
80377;SDS011;69688;48.124;11.542;2023-05-10T05:41:38;0.50;;;0.20;;
80377;SDS011;69688;48.124;11.542;2023-05-10T05:44:03;0.97;;;0.40;;
80377;SDS011;69688;48.124;11.542;2023-05-10T05:46:29;0.40;;;0.10;;
80377;SDS011;69688;48.124;11.542;2023-05-10T05:48:54;0.55;;;0.38;;
80377;SDS011;69688;48.124;11.542;2023-05-10T05:51:19;0.60;;;0.20;;
80377;SDS011;69688;48.124;11.542;2023-05-10T05:53:45;0.40;;;0.20;;
80377;SDS011;69688;48.124;11.542;2023-05-10T05:56:10;0.70;;;0.40;;
80377;SDS011;69688;48.124;11.542;2023-05-10T05:58:35;0.55;;;0.20;;
80377;SDS011;69688;48.124;11.542;2023-05-10T06:01:01;0.45;;;0.20;;
80377;SDS011;69688;48.124;11.542;2023-05-10T06:03:26;0.43;;;0.30;;
80377;SDS011;69688;48.124;11.542;2023-05-10T06:05:51;2.23;;;0.43;;
80377;SDS011;69688;48.124;11.542;2023-05-10T06:08:17;8.60;;;0.63;;
80377;SDS011;69688;48.124;11.542;2023-05-10T06:10:42;2.38;;;0.47;;
80377;SDS011;69688;48.124;11.542;2023-05-10T06:13:08;4.10;;;0.73;;
80377;SDS011;69688;48.124;11.542;2023-05-10T06:15:33;3.95;;;0.50;;
80377;SDS011;69688;48.124;11.542;2023-05-10T06:17:59;2.78;;;0.57;;
80377;SDS011;69688;48.124;11.542;2023-05-10T06:20:25;3.72;;;0.52;;
80377;SDS011;69688;48.124;11.542;2023-05-10T06:22:50;4.72;;;0.60;;
80377;SDS011;69688;48.124;11.542;2023-05-10T06:25:15;1.50;;;0.53;;
80377;SDS011;69688;48.124;11.542;2023-05-10T06:27:42;1.80;;;0.43;;
80377;SDS011;69688;48.124;11.542;2023-05-10T06:30:08;3.53;;;0.70;;
80377;SDS011;69688;48.124;11.542;2023-05-10T06:32:34;2.53;;;0.43;;
80377;SDS011;69688;48.124;11.542;2023-05-10T06:34:59;1.45;;;0.30;;
80377;SDS011;69688;48.124;11.542;2023-05-10T06:37:25;1.15;;;0.25;;
80377;SDS011;69688;48.124;11.542;2023-05-10T06:39:50;1.70;;;0.47;;
80377;SDS011;69688;48.124;11.542;2023-05-10T06:42:15;2.00;;;0.73;;
80377;SDS011;69688;48.124;11.542;2023-05-10T06:44:40;1.47;;;0.30;;
80377;SDS011;69688;48.124;11.542;2023-05-10T06:47:06;0.40;;;0.40;;
80377;SDS011;69688;48.124;11.542;2023-05-10T06:49:32;1.50;;;0.30;;
80377;SDS011;69688;48.124;11.542;2023-05-10T06:51:57;1.77;;;0.70;;
80377;SDS011;69688;48.124;11.542;2023-05-10T06:54:22;1.33;;;0.30;;
80377;SDS011;69688;48.124;11.542;2023-05-10T06:56:48;0.93;;;0.40;;
80377;SDS011;69688;48.124;11.542;2023-05-10T06:59:13;0.28;;;0.28;;
80377;SDS011;69688;48.124;11.542;2023-05-10T07:01:40;1.88;;;0.47;;
80377;SDS011;69688;48.124;11.542;2023-05-10T07:04:05;1.45;;;0.30;;
80377;SDS011;69688;48.124;11.542;2023-05-10T07:06:32;1.38;;;0.50;;
80377;SDS011;69688;48.124;11.542;2023-05-10T07:08:58;1.17;;;0.50;;
80377;SDS011;69688;48.124;11.542;2023-05-10T07:11:23;2.10;;;0.50;;
80377;SDS011;69688;48.124;11.542;2023-05-10T07:13:49;0.75;;;0.20;;
80377;SDS011;69688;48.124;11.542;2023-05-10T07:16:14;0.45;;;0.30;;
80377;SDS011;69688;48.124;11.542;2023-05-10T07:18:40;0.57;;;0.30;;
80377;SDS011;69688;48.124;11.542;2023-05-10T07:21:05;0.60;;;0.30;;
80377;SDS011;69688;48.124;11.542;2023-05-10T07:23:30;0.88;;;0.30;;
80377;SDS011;69688;48.124;11.542;2023-05-10T07:25:56;0.43;;;0.30;;
80377;SDS011;69688;48.124;11.542;2023-05-10T07:28:22;0.43;;;0.30;;
80377;SDS011;69688;48.124;11.542;2023-05-10T07:30:48;1.20;;;0.20;;
80377;SDS011;69688;48.124;11.542;2023-05-10T07:33:13;0.80;;;0.50;;
80377;SDS011;69688;48.124;11.542;2023-05-10T07:35:39;0.88;;;0.40;;
80377;SDS011;69688;48.124;11.542;2023-05-10T07:38:05;0.63;;;0.30;;
80377;SDS011;69688;48.124;11.542;2023-05-10T07:40:30;1.10;;;0.35;;
80377;SDS011;69688;48.124;11.542;2023-05-10T07:42:56;0.32;;;0.25;;
80377;SDS011;69688;48.124;11.542;2023-05-10T07:45:21;0.77;;;0.40;;
80377;SDS011;69688;48.124;11.542;2023-05-10T07:47:47;1.17;;;0.30;;
80377;SDS011;69688;48.124;11.542;2023-05-10T07:50:13;1.03;;;0.30;;
80377;SDS011;69688;48.124;11.542;2023-05-10T07:52:39;0.30;;;0.30;;
80377;SDS011;69688;48.124;11.542;2023-05-10T07:55:05;0.90;;;0.30;;
80377;SDS011;69688;48.124;11.542;2023-05-10T07:57:32;0.77;;;0.30;;
80377;SDS011;69688;48.124;11.542;2023-05-10T07:59:58;1.05;;;0.30;;
80377;SDS011;69688;48.124;11.542;2023-05-10T08:02:23;1.58;;;0.30;;
80377;SDS011;69688;48.124;11.542;2023-05-10T08:04:48;0.30;;;0.20;;
80377;SDS011;69688;48.124;11.542;2023-05-10T08:07:14;1.08;;;0.30;;
80377;SDS011;69688;48.124;11.542;2023-05-10T08:09:39;0.40;;;0.40;;
80377;SDS011;69688;48.124;11.542;2023-05-10T08:12:05;0.20;;;0.20;;
80377;SDS011;69688;48.124;11.542;2023-05-10T08:14:30;0.90;;;0.40;;
80377;SDS011;69688;48.124;11.542;2023-05-10T08:16:55;0.30;;;0.30;;
80377;SDS011;69688;48.124;11.542;2023-05-10T08:19:21;0.43;;;0.30;;
80377;SDS011;69688;48.124;11.542;2023-05-10T08:21:48;0.95;;;0.40;;
80377;SDS011;69688;48.124;11.542;2023-05-10T08:24:13;0.40;;;0.20;;
80377;SDS011;69688;48.124;11.542;2023-05-10T08:26:39;0.70;;;0.20;;
80377;SDS011;69688;48.124;11.542;2023-05-10T08:29:04;0.40;;;0.20;;
80377;SDS011;69688;48.124;11.542;2023-05-10T08:31:30;0.50;;;0.37;;
80377;SDS011;69688;48.124;11.542;2023-05-10T08:33:55;0.88;;;0.30;;
80377;SDS011;69688;48.124;11.542;2023-05-10T08:36:20;1.38;;;0.30;;
80377;SDS011;69688;48.124;11.542;2023-05-10T08:38:51;0.30;;;0.30;;
80377;SDS011;69688;48.124;11.542;2023-05-10T08:41:19;0.63;;;0.40;;
80377;SDS011;69688;48.124;11.542;2023-05-10T08:43:45;0.85;;;0.50;;
80377;SDS011;69688;48.124;11.542;2023-05-10T08:46:12;0.30;;;0.30;;
80377;SDS011;69688;48.124;11.542;2023-05-10T08:48:41;0.55;;;0.52;;
80377;SDS011;69688;48.124;11.542;2023-05-10T08:51:07;1.02;;;0.30;;
80377;SDS011;69688;48.124;11.542;2023-05-10T08:53:33;0.75;;;0.40;;
80377;SDS011;69688;48.124;11.542;2023-05-10T08:56:01;0.40;;;0.30;;
80377;SDS011;69688;48.124;11.542;2023-05-10T08:58:27;0.65;;;0.40;;
80377;SDS011;69688;48.124;11.542;2023-05-10T09:00:52;0.93;;;0.57;;
80377;SDS011;69688;48.124;11.542;2023-05-10T09:03:18;1.27;;;0.32;;
80377;SDS011;69688;48.124;11.542;2023-05-10T09:05:43;0.93;;;0.35;;
80377;SDS011;69688;48.124;11.542;2023-05-10T09:08:09;0.73;;;0.40;;
80377;SDS011;69688;48.124;11.542;2023-05-10T09:10:37;1.15;;;0.50;;
80377;SDS011;69688;48.124;11.542;2023-05-10T09:13:03;0.75;;;0.60;;
80377;SDS011;69688;48.124;11.542;2023-05-10T09:15:29;0.80;;;0.40;;
80377;SDS011;69688;48.124;11.542;2023-05-10T09:17:54;1.65;;;0.90;;
80377;SDS011;69688;48.124;11.542;2023-05-10T09:20:20;1.38;;;0.60;;
80377;SDS011;69688;48.124;11.542;2023-05-10T09:22:45;0.75;;;0.57;;
80377;SDS011;69688;48.124;11.542;2023-05-10T09:25:11;1.15;;;0.50;;
80377;SDS011;69688;48.124;11.542;2023-05-10T09:27:39;1.10;;;0.90;;
80377;SDS011;69688;48.124;11.542;2023-05-10T09:30:05;1.20;;;0.68;;
80377;SDS011;69688;48.124;11.542;2023-05-10T09:35:10;0.68;;;0.50;;
80377;SDS011;69688;48.124;11.542;2023-05-10T09:37:36;1.98;;;0.60;;
80377;SDS011;69688;48.124;11.542;2023-05-10T09:40:04;1.08;;;0.60;;
80377;SDS011;69688;48.124;11.542;2023-05-10T09:42:29;1.92;;;0.80;;
80377;SDS011;69688;48.124;11.542;2023-05-10T09:44:59;1.95;;;0.50;;
80377;SDS011;69688;48.124;11.542;2023-05-10T09:47:25;1.70;;;0.63;;
80377;SDS011;69688;48.124;11.542;2023-05-10T09:49:52;1.45;;;0.77;;
80377;SDS011;69688;48.124;11.542;2023-05-10T09:52:18;1.58;;;0.68;;
80377;SDS011;69688;48.124;11.542;2023-05-10T09:54:53;1.00;;;0.60;;
80377;SDS011;69688;48.124;11.542;2023-05-10T09:57:22;1.83;;;1.10;;
80377;SDS011;69688;48.124;11.542;2023-05-10T09:59:48;1.75;;;0.80;;
80377;SDS011;69688;48.124;11.542;2023-05-10T10:02:14;2.05;;;0.77;;
80377;SDS011;69688;48.124;11.542;2023-05-10T10:04:40;2.17;;;0.73;;
80377;SDS011;69688;48.124;11.542;2023-05-10T10:07:06;2.38;;;0.57;;
80377;SDS011;69688;48.124;11.542;2023-05-10T10:09:32;1.98;;;0.70;;
80377;SDS011;69688;48.124;11.542;2023-05-10T10:11:59;5.20;;;0.70;;
80377;SDS011;69688;48.124;11.542;2023-05-10T10:14:25;0.65;;;0.55;;
80377;SDS011;69688;48.124;11.542;2023-05-10T10:16:50;3.90;;;1.27;;
80377;SDS011;69688;48.124;11.542;2023-05-10T10:19:16;2.30;;;0.80;;
80377;SDS011;69688;48.124;11.542;2023-05-10T10:21:43;2.13;;;0.80;;
80377;SDS011;69688;48.124;11.542;2023-05-10T10:24:08;0.85;;;0.77;;
80377;SDS011;69688;48.124;11.542;2023-05-10T10:26:34;2.58;;;0.80;;
80377;SDS011;69688;48.124;11.542;2023-05-10T10:29:19;1.20;;;0.90;;
80377;SDS011;69688;48.124;11.542;2023-05-10T10:37:14;0.80;;;0.70;;
80377;SDS011;69688;48.124;11.542;2023-05-10T10:39:40;2.35;;;0.70;;
80377;SDS011;69688;48.124;11.542;2023-05-10T10:42:05;1.17;;;0.65;;
80377;SDS011;69688;48.124;11.542;2023-05-10T10:47:03;1.13;;;0.60;;
80377;SDS011;69688;48.124;11.542;2023-05-10T10:49:51;1.00;;;0.63;;
80377;SDS011;69688;48.124;11.542;2023-05-10T10:52:34;1.55;;;0.70;;
80377;SDS011;69688;48.124;11.542;2023-05-10T10:55:07;1.85;;;0.45;;
80377;SDS011;69688;48.124;11.542;2023-05-10T11:02:58;0.57;;;0.50;;
80377;SDS011;69688;48.124;11.542;2023-05-10T11:08:06;0.40;;;0.40;;
80377;SDS011;69688;48.124;11.542;2023-05-10T11:10:33;2.38;;;0.63;;
80377;SDS011;69688;48.124;11.542;2023-05-10T11:12:59;1.30;;;0.85;;
80377;SDS011;69688;48.124;11.542;2023-05-10T11:15:32;1.15;;;0.63;;
80377;SDS011;69688;48.124;11.542;2023-05-10T11:17:59;1.05;;;0.50;;
80377;SDS011;69688;48.124;11.542;2023-05-10T11:20:28;0.77;;;0.45;;
80377;SDS011;69688;48.124;11.542;2023-05-10T11:23:00;1.00;;;0.73;;
80377;SDS011;69688;48.124;11.542;2023-05-10T11:25:40;1.20;;;0.60;;
80377;SDS011;69688;48.124;11.542;2023-05-10T11:28:07;1.05;;;0.88;;
80377;SDS011;69688;48.124;11.542;2023-05-10T11:30:32;1.67;;;0.68;;
80377;SDS011;69688;48.124;11.542;2023-05-10T11:32:57;1.08;;;0.38;;
80377;SDS011;69688;48.124;11.542;2023-05-10T11:35:23;0.97;;;0.43;;
80377;SDS011;69688;48.124;11.542;2023-05-10T11:37:48;0.90;;;0.50;;
80377;SDS011;69688;48.124;11.542;2023-05-10T11:40:13;1.30;;;0.50;;
80377;SDS011;69688;48.124;11.542;2023-05-10T11:42:39;3.08;;;0.52;;
80377;SDS011;69688;48.124;11.542;2023-05-10T11:45:05;0.85;;;0.55;;
80377;SDS011;69688;48.124;11.542;2023-05-10T11:47:31;1.38;;;0.68;;
80377;SDS011;69688;48.124;11.542;2023-05-10T11:49:56;0.70;;;0.50;;
80377;SDS011;69688;48.124;11.542;2023-05-10T11:52:22;0.63;;;0.40;;
80377;SDS011;69688;48.124;11.542;2023-05-10T11:54:51;0.57;;;0.40;;
80377;SDS011;69688;48.124;11.542;2023-05-10T11:57:18;1.98;;;0.40;;
80377;SDS011;69688;48.124;11.542;2023-05-10T11:59:45;1.00;;;0.68;;
80377;SDS011;69688;48.124;11.542;2023-05-10T12:02:10;1.08;;;0.68;;
80377;SDS011;69688;48.124;11.542;2023-05-10T12:04:37;2.03;;;0.70;;
80377;SDS011;69688;48.124;11.542;2023-05-10T12:07:02;0.52;;;0.50;;
80377;SDS011;69688;48.124;11.542;2023-05-10T12:09:28;0.85;;;0.50;;
80377;SDS011;69688;48.124;11.542;2023-05-10T12:11:55;1.30;;;0.57;;
80377;SDS011;69688;48.124;11.542;2023-05-10T12:14:22;1.58;;;0.73;;
80377;SDS011;69688;48.124;11.542;2023-05-10T12:16:47;2.80;;;0.40;;
80377;SDS011;69688;48.124;11.542;2023-05-10T12:19:13;0.90;;;0.50;;
80377;SDS011;69688;48.124;11.542;2023-05-10T12:21:43;0.70;;;0.47;;
80377;SDS011;69688;48.124;11.542;2023-05-10T12:24:09;1.15;;;0.40;;
80377;SDS011;69688;48.124;11.542;2023-05-10T12:26:35;1.13;;;0.47;;
80377;SDS011;69688;48.124;11.542;2023-05-10T12:29:19;1.55;;;0.68;;
80377;SDS011;69688;48.124;11.542;2023-05-10T12:31:55;0.88;;;0.60;;
80377;SDS011;69688;48.124;11.542;2023-05-10T12:34:34;0.63;;;0.40;;
80377;SDS011;69688;48.124;11.542;2023-05-10T12:37:01;1.10;;;0.50;;
80377;SDS011;69688;48.124;11.542;2023-05-10T12:39:38;0.57;;;0.40;;
80377;SDS011;69688;48.124;11.542;2023-05-10T12:42:04;0.95;;;0.57;;
80377;SDS011;69688;48.124;11.542;2023-05-10T12:44:29;1.27;;;0.52;;
80377;SDS011;69688;48.124;11.542;2023-05-10T12:46:54;1.40;;;0.50;;
80377;SDS011;69688;48.124;11.542;2023-05-10T12:49:20;0.93;;;0.47;;
80377;SDS011;69688;48.124;11.542;2023-05-10T12:51:45;0.65;;;0.50;;
80377;SDS011;69688;48.124;11.542;2023-05-10T12:54:10;1.15;;;0.60;;
80377;SDS011;69688;48.124;11.542;2023-05-10T12:56:36;0.50;;;0.40;;
80377;SDS011;69688;48.124;11.542;2023-05-10T12:59:02;1.02;;;0.50;;
80377;SDS011;69688;48.124;11.542;2023-05-10T13:01:27;0.50;;;0.32;;
80377;SDS011;69688;48.124;11.542;2023-05-10T13:03:53;0.90;;;0.50;;
80377;SDS011;69688;48.124;11.542;2023-05-10T13:06:18;1.08;;;0.50;;
80377;SDS011;69688;48.124;11.542;2023-05-10T13:08:43;0.57;;;0.57;;
80377;SDS011;69688;48.124;11.542;2023-05-10T13:11:09;0.60;;;0.57;;
80377;SDS011;69688;48.124;11.542;2023-05-10T13:13:34;1.20;;;0.75;;
80377;SDS011;69688;48.124;11.542;2023-05-10T13:15:59;0.73;;;0.50;;
80377;SDS011;69688;48.124;11.542;2023-05-10T13:18:25;1.23;;;0.40;;
80377;SDS011;69688;48.124;11.542;2023-05-10T13:20:51;1.02;;;0.50;;
80377;SDS011;69688;48.124;11.542;2023-05-10T13:23:16;1.35;;;0.40;;
80377;SDS011;69688;48.124;11.542;2023-05-10T13:25:41;2.73;;;0.50;;
80377;SDS011;69688;48.124;11.542;2023-05-10T13:28:07;0.83;;;0.50;;
80377;SDS011;69688;48.124;11.542;2023-05-10T13:30:32;1.13;;;0.33;;
80377;SDS011;69688;48.124;11.542;2023-05-10T13:32:57;0.80;;;0.80;;
80377;SDS011;69688;48.124;11.542;2023-05-10T13:35:23;0.50;;;0.40;;
80377;SDS011;69688;48.124;11.542;2023-05-10T13:37:48;1.27;;;0.50;;
80377;SDS011;69688;48.124;11.542;2023-05-10T13:40:14;1.60;;;0.40;;
80377;SDS011;69688;48.124;11.542;2023-05-10T13:42:40;0.90;;;0.40;;
80377;SDS011;69688;48.124;11.542;2023-05-10T13:45:06;0.90;;;0.40;;
80377;SDS011;69688;48.124;11.542;2023-05-10T13:47:31;1.15;;;0.45;;
80377;SDS011;69688;48.124;11.542;2023-05-10T13:49:57;1.05;;;0.60;;
80377;SDS011;69688;48.124;11.542;2023-05-10T13:52:23;1.65;;;0.43;;
80377;SDS011;69688;48.124;11.542;2023-05-10T13:54:48;1.35;;;0.50;;
80377;SDS011;69688;48.124;11.542;2023-05-10T13:57:14;0.63;;;0.47;;
80377;SDS011;69688;48.124;11.542;2023-05-10T13:59:41;0.90;;;0.60;;
80377;SDS011;69688;48.124;11.542;2023-05-10T14:02:07;0.75;;;0.50;;
80377;SDS011;69688;48.124;11.542;2023-05-10T14:04:32;0.60;;;0.30;;
80377;SDS011;69688;48.124;11.542;2023-05-10T14:06:59;0.43;;;0.40;;
80377;SDS011;69688;48.124;11.542;2023-05-10T14:09:24;0.80;;;0.50;;
80377;SDS011;69688;48.124;11.542;2023-05-10T14:11:49;1.13;;;0.50;;
80377;SDS011;69688;48.124;11.542;2023-05-10T14:14:15;0.40;;;0.38;;
80377;SDS011;69688;48.124;11.542;2023-05-10T14:16:44;0.40;;;0.40;;
80377;SDS011;69688;48.124;11.542;2023-05-10T14:19:09;0.40;;;0.40;;
80377;SDS011;69688;48.124;11.542;2023-05-10T14:21:35;1.20;;;0.63;;
80377;SDS011;69688;48.124;11.542;2023-05-10T14:24:00;0.90;;;0.40;;
80377;SDS011;69688;48.124;11.542;2023-05-10T14:26:26;0.63;;;0.40;;
80377;SDS011;69688;48.124;11.542;2023-05-10T14:28:52;0.40;;;0.40;;
80377;SDS011;69688;48.124;11.542;2023-05-10T14:31:17;0.30;;;0.30;;
80377;SDS011;69688;48.124;11.542;2023-05-10T14:33:45;1.67;;;0.50;;
80377;SDS011;69688;48.124;11.542;2023-05-10T14:36:10;1.00;;;0.70;;
80377;SDS011;69688;48.124;11.542;2023-05-10T14:38:35;0.82;;;0.40;;
80377;SDS011;69688;48.124;11.542;2023-05-10T14:41:01;1.50;;;0.45;;
80377;SDS011;69688;48.124;11.542;2023-05-10T14:43:26;1.33;;;0.45;;
80377;SDS011;69688;48.124;11.542;2023-05-10T14:45:52;0.50;;;0.50;;
80377;SDS011;69688;48.124;11.542;2023-05-10T14:48:18;0.40;;;0.35;;
80377;SDS011;69688;48.124;11.542;2023-05-10T14:50:44;0.65;;;0.30;;
80377;SDS011;69688;48.124;11.542;2023-05-10T14:53:10;0.80;;;0.40;;
80377;SDS011;69688;48.124;11.542;2023-05-10T14:55:35;0.40;;;0.40;;
80377;SDS011;69688;48.124;11.542;2023-05-10T14:58:03;0.30;;;0.30;;
80377;SDS011;69688;48.124;11.542;2023-05-10T15:00:29;0.55;;;0.50;;
80377;SDS011;69688;48.124;11.542;2023-05-10T15:02:55;1.55;;;0.73;;
80377;SDS011;69688;48.124;11.542;2023-05-10T15:05:20;0.40;;;0.40;;
80377;SDS011;69688;48.124;11.542;2023-05-10T15:07:46;2.90;;;0.70;;